Search for airport 
image banner adimage banner adimage banner ad
image banner ad

7CA3 - Mercy Medical Center

Located in Redding, United States

ICAO - 7CA3, IATA -

Data provided by Airmate  

General information

Coordinates: N40°34'20" W122°23'48"
Elevation is 715 feet MSL.
Magnetic variation is 17° East
View others Airports in California

Operational data

Special qualification required
Current time UTC:
Current local time:
Weather at : KRDD - Redding Muni ( 11 km )
METAR: KRDD 211153Z 00000KT 10SM CLR 21/06 A2980 RMK AO2 SLP084 T02110061 10278 20200 53007
TAF: KRDD 211120Z 2112/2212 VRB05KT P6SM SCT250 FM212100 19015G24KT P6SM SCT250 FM220300 VRB05KT P6SM SKC
View NOTAMs / SUP AIP / TFR affecting this airport [VIEW]
Communications frequencies: [VIEW]

Runways:

Airport contact information

Address: Redding United States

Satellite view of 7CA3